Data for 02/18/2015

Time Sea-Level Adjusted Pressure Absolute Pressure Temperature Relative Humidity Dew Point   
(mb) (inHg) (mb) (inHg) (C) (F) (%) (C) (F)
00:05 1020 30.12 850 25.1 1.9 35.4 34 -12.6 9.4
00:10 1020 30.12 850 25.1 1.7 35.1 34 -12.6 9.4
00:15 1020 30.12 850 25.1 1.7 35 33 -12.8 8.9
00:20 1020 30.12 850 25.1 1.7 35.1 33 -12.9 8.7
00:25 1020 30.12 850 25.1 1.8 35.3 34 -12.6 9.4
00:30 1020 30.12 850 25.1 1.8 35.2 34 -12.4 9.7
00:35 1020 30.12 850 25.1 1.6 34.9 38 -11.3 11.7
00:40 1020 30.12 850 25.1 1.4 34.5 37 -12 10.5
00:45 1020 30.12 850 25.1 1.5 34.7 36 -11.9 10.6
00:50 1020 30.12 850 25.1 1.7 35 39 -11 12.2
00:55 1020 30.12 850 25.1 1.4 34.6 44 -9.6 14.8
01:00 1020 30.12 850 25.1 0.9 33.6 43 -10.4 13.2
01:05 1020 30.12 850 25.1 0.7 33.2 41 -11.2 11.9
01:10 1020 30.12 850 25.1 0.7 33.2 41 -11.3 11.7
01:15 1020 30.12 850 25.1 0.6 33.1 39 -11.9 10.6
01:20 1020 30.12 850 25.1 0.7 33.2 43 -10.5 13.2
01:25 1020 30.12 850 25.1 0.6 33.1 44 -10.4 13.3
01:30 1021 30.15 850 25.1 1 33.9 38 -11.7 10.9
01:35 1021 30.15 850 25.1 1.2 34.2 39 -11.4 11.5
01:40 1021 30.15 850 25.1 1.3 34.3 36 -12.4 9.7
01:45 1021 30.15 850 25.1 1.6 34.9 35 -12.3 9.8
01:50 1021 30.15 850 25.1 1.8 35.2 36 -11.8 10.7
01:55 1021 30.15 850 25.1 1.7 35.1 34 -12.6 9.4
02:00 1021 30.15 850 25.1 1.9 35.4 36 -11.8 10.7
02:05 1021 30.15 850 25.1 1.9 35.4 36 -11.8 10.8
02:10 1021 30.15 850 25.1 1.8 35.3 37 -11.6 11.2
02:15 1021 30.15 850 25.1 1.6 34.9 38 -11.2 11.8
02:20 1021 30.15 850 25.1 1.6 34.9 37 -11.4 11.4
02:25 1021 30.15 850 25.1 1.7 35 35 -12.3 9.8
02:30 1021 30.15 850 25.1 1.9 35.3 33 -12.9 8.7
02:35 1021 30.15 850 25.1 1.8 35.2 41 -10.1 13.8
02:40 1021 30.15 850 25.1 1.4 34.6 38 -11.5 11.3
02:45 1021 30.15 850 25.1 1.5 34.7 38 -11.5 11.4
02:50 1021 30.15 850 25.1 1.6 34.9 37 -11.6 11.1
02:55 1021 30.15 850 25.1 1.5 34.8 39 -11.1 12.1
03:00 1021 30.15 850 25.1 1.6 34.8 38 -11.4 11.5
03:05 1021 30.15 850 25.1 1.6 34.9 41 -10.4 13.4
03:10 1021 30.15 850 25.1 1.4 34.6 44 -9.4 15.1
03:15 1021 30.15 850 25.1 1.1 34 43 -10.2 13.6
03:20 1021 30.15 850 25.1 1.2 34.2 42 -10.3 13.4
03:25 1021 30.15 850 25.1 1.3 34.4 41 -10.6 12.9
03:30 1021 30.15 850 25.1 1.3 34.3 43 -10 14
03:35 1021 30.15 850 25.1 1.1 34.1 43 -10 14.1
03:40 1021 30.15 850 25.1 1.2 34.1 43 -10 14
03:45 1021 30.15 850 25.1 1.2 34.1 43 -10.1 13.7
03:50 1021 30.15 851 25.13 1.2 34.2 43 -10.1 13.9
03:55 1021 30.15 851 25.13 1.1 34 43 -10.2 13.6
04:00 1021 30.15 851 25.13 0.9 33.7 43 -10.3 13.5
04:05 1021 30.15 851 25.13 0.8 33.4 43 -10.4 13.2
04:10 1021 30.15 851 25.13 0.9 33.6 42 -10.5 13
04:15 1022 30.18 851 25.13 1.1 34.1 41 -10.6 12.9
04:20 1022 30.18 851 25.13 1.3 34.4 40 -10.9 12.3
04:25 1022 30.18 851 25.13 1.4 34.6 39 -11 12.2
04:30 1022 30.18 851 25.13 1.5 34.7 35 -12.2 10
04:35 1022 30.18 851 25.13 1.7 35.1 38 -11 12.2
04:40 1022 30.18 851 25.13 1.7 35.1 36 -12 10.5
04:45 1022 30.18 851 25.13 1.9 35.3 40 -10.4 13.3
04:50 1022 30.18 851 25.13 1.6 34.9 40 -10.6 12.9
04:55 1022 30.18 851 25.13 1.4 34.6 43 -9.9 14.1
05:00 1022 30.18 851 25.13 1.3 34.3 39 -11.2 11.8
05:05 1022 30.18 851 25.13 1.6 34.8 38 -11.5 11.4
05:10 1022 30.18 851 25.13 1.6 34.9 38 -11.4 11.4
05:15 1022 30.18 851 25.13 1.4 34.6 43 -9.8 14.4
05:20 1022 30.18 851 25.13 1.2 34.1 42 -10.4 13.2
05:25 1022 30.18 851 25.13 1.3 34.3 41 -10.6 13
05:30 1022 30.18 851 25.13 1.4 34.5 40 -11 12.3
05:35 1022 30.18 851 25.13 1.6 34.9 42 -10.1 13.9
05:40 1022 30.18 851 25.13 1.5 34.7 42 -10.1 13.9
05:45 1022 30.18 851 25.13 1.3 34.3 43 -9.8 14.3
05:50 1022 30.18 851 25.13 1.1 34 45 -9.7 14.5
05:55 1022 30.18 851 25.13 1.1 33.9 45 -9.5 15
06:00 1022 30.18 851 25.13 1.1 33.9 44 -10 14.1
06:05 1022 30.18 851 25.13 1.3 34.4 41 -10.5 13.1
06:10 1022 30.18 851 25.13 1.3 34.3 43 -9.9 14.2
06:15 1022 30.18 851 25.13 1.2 34.1 40 -10.9 12.4
06:20 1022 30.18 851 25.13 1.4 34.6 40 -10.7 12.7
06:25 1022 30.18 851 25.13 1.6 34.8 38 -11.2 11.8
06:30 1022 30.18 851 25.13 1.5 34.6 43 -9.7 14.5
06:35 1022 30.18 851 25.13 1.2 34.2 44 -9.6 14.7
06:40 1022 30.18 851 25.13 1.2 34.2 42 -10.4 13.3
06:45 1022 30.18 851 25.13 1.3 34.3 45 -9.5 14.9
06:50 1022 30.18 851 25.13 1.2 34.2 44 -9.7 14.5
06:55 1022 30.18 851 25.13 1.2 34.1 46 -9.2 15.5
07:00 1022 30.18 851 25.13 1 33.8 47 -9 15.8
07:05 1022 30.18 851 25.13 0.7 33.3 48 -9.2 15.5
07:10 1022 30.18 851 25.13 0.7 33.2 47 -9.5 14.9
07:15 1022 30.18 851 25.13 0.8 33.4 45 -9.8 14.4
07:20 1022 30.18 851 25.13 0.9 33.6 47 -9.1 15.6
07:25 1022 30.18 851 25.13 0.9 33.7 48 -8.8 16.1
07:30 1022 30.18 851 25.13 0.9 33.5 46 -9.4 15.1
07:35 1022 30.18 851 25.13 0.9 33.6 40 -11.4 11.5
07:40 1022 30.18 851 25.13 1.1 34 40 -10.9 12.3
07:45 1022 30.18 851 25.13 1.2 34.1 42 -10.5 13.1
07:50 1022 30.18 851 25.13 1.2 34.2 36 -12.2 10
07:55 1022 30.18 851 25.13 1.5 34.6 34 -13 8.7
08:00 1022 30.18 851 25.13 1.7 35.1 32 -13.1 8.3
08:05 1022 30.18 851 25.13 1.9 35.4 33 -12.7 9.1
08:10 1022 30.18 851 25.13 1.8 35.3 33 -12.8 9
08:15 1022 30.18 851 25.13 1.8 35.2 34 -12.3 9.8
08:20 1022 30.18 851 25.13 1.7 35 37 -11.5 11.3
08:25 1022 30.18 851 25.13 1.4 34.5 43 -9.9 14.2
08:30 1022 30.18 851 25.13 1.1 34 46 -9.2 15.4
08:35 1022 30.18 851 25.13 0.9 33.6 45 -9.8 14.4
08:40 1022 30.18 851 25.13 0.9 33.7 40 -11.4 11.5
08:45 1022 30.18 851 25.13 1.1 34 38 -11.8 10.8
08:50 1022 30.18 851 25.13 1.3 34.4 35 -12.4 9.6
08:55 1022 30.18 851 25.13 1.4 34.6 38 -11.4 11.5
09:00 1022 30.18 852 25.16 1.1 34 39 -11.4 11.5
09:05 1022 30.18 852 25.16 0.9 33.6 39 -11.7 10.9
09:10 1022 30.18 851 25.13 1 33.8 40 -11.3 11.7
09:15 1022 30.18 851 25.13 1.3 34.3 41 -10.5 13
09:20 1022 30.18 852 25.16 1.5 34.7 41 -10.4 13.4
09:25 1022 30.18 852 25.16 1.7 35 42 -9.9 14.3
09:30 1022 30.18 852 25.16 1.7 35 43 -9.7 14.6
09:35 1022 30.18 852 25.16 2 35.7 41 -10 14
09:40 1022 30.18 852 25.16 2.1 35.8 42 -9.5 14.8
09:45 1023 30.21 852 25.16 2.1 35.8 43 -9.3 15.3
09:50 1023 30.21 852 25.16 2.2 35.9 39 -10.3 13.4
09:55 1023 30.21 852 25.16 2.6 36.7 38 -10.3 13.4
10:00 1023 30.21 852 25.16 3.3 37.9 35 -10.6 12.9
10:05 1023 30.21 852 25.16 3.9 38.9 33 -10.9 12.3
10:10 1023 30.21 852 25.16 4.6 40.3 29 -11.8 10.7
10:15 1023 30.21 852 25.16 5.2 41.3 26 -12.8 9
10:20 1023 30.21 852 25.16 5.3 41.6 26 -12.9 8.7
10:25 1023 30.21 852 25.16 5.6 42 25 -13 8.6
10:30 1023 30.21 852 25.16 5.5 42 25 -13.2 8.2
10:35 1023 30.21 852 25.16 5.2 41.4 26 -12.9 8.8
10:40 1023 30.21 852 25.16 5.5 41.9 25 -13.1 8.4
10:45 1023 30.21 852 25.16 5.5 41.9 25 -12.9 8.8
10:50 1023 30.21 852 25.16 5.7 42.2 24 -13.6 7.5
10:55 1023 30.21 852 25.16 6.3 43.3 24 -12.7 9.1
11:00 1023 30.21 852 25.16 6 42.9 24 -12.9 8.9
11:05 1023 30.21 852 25.16 6.4 43.4 24 -12.9 8.7
11:10 1023 30.21 852 25.16 6.8 44.3 24 -12.4 9.7
11:15 1023 30.21 852 25.16 6.8 44.2 24 -12.5 9.6
11:20 1023 30.21 852 25.16 6.9 44.4 25 -11.9 10.7
11:25 1023 30.21 852 25.16 7.2 45 24 -12 10.5
11:30 1023 30.21 852 25.16 6.4 43.6 25 -12.1 10.3
11:35 1023 30.21 852 25.16 5.9 42.5 26 -12.1 10.2
11:40 1023 30.21 852 25.16 6.8 44.2 25 -12.1 10.3
11:45 1023 30.21 852 25.16 7.2 44.9 25 -11.4 11.4
11:50 1023 30.21 852 25.16 7.3 45.1 24 -12 10.3
11:55 1023 30.21 852 25.16 7.4 45.3 25 -11.2 11.9
12:00 1023 30.21 852 25.16 7.3 45.1 24 -12.2 10
12:05 1023 30.21 852 25.16 7.8 46.1 23 -12.4 9.8
12:10 1023 30.21 852 25.16 8 46.5 22 -12.2 10
12:15 1023 30.21 852 25.16 7.8 46 24 -11.7 11
12:20 1023 30.21 852 25.16 7.7 45.8 24 -11.9 10.6
12:25 1023 30.21 852 25.16 7.7 45.9 24 -11.8 10.7
12:30 1022 30.18 852 25.16 7.6 45.6 24 -12 10.5
12:35 1022 30.18 852 25.16 7 44.6 25 -11.9 10.5
12:40 1022 30.18 852 25.16 7.3 45.2 24 -12 10.4
12:45 1022 30.18 852 25.16 7 44.5 25 -12 10.4
12:50 1022 30.18 852 25.16 7.2 44.9 24 -11.8 10.7
12:55 1022 30.18 852 25.16 7.2 44.9 24 -12 10.3
13:00 1022 30.18 851 25.13 7.8 46.1 23 -12 10.3
13:05 1022 30.18 852 25.16 8.6 47.4 22 -11.9 10.6
13:10 1022 30.18 851 25.13 8.5 47.3 23 -11.4 11.5
13:15 1022 30.18 851 25.13 8.6 47.5 21 -12.3 9.8
13:20 1022 30.18 851 25.13 9.1 48.4 22 -11.8 10.8
13:25 1022 30.18 851 25.13 9.5 49.1 22 -11.2 11.8
13:30 1022 30.18 851 25.13 10.3 50.6 21 -11.1 12
13:35 1022 30.18 851 25.13 9.7 49.4 23 -10.6 12.9
13:40 1022 30.18 851 25.13 9.3 48.7 21 -12 10.4
13:45 1022 30.18 851 25.13 9.3 48.7 22 -11.4 11.4
13:50 1022 30.18 851 25.13 10.2 50.4 21 -11.3 11.6
13:55 1022 30.18 851 25.13 10.5 51 20 -11.3 11.6
14:00 1021 30.15 851 25.13 10.9 51.6 20 -11.2 11.8
14:05 1021 30.15 851 25.13 11.6 52.9 20 -10.8 12.5
14:10 1021 30.15 851 25.13 11.9 53.5 19 -10.8 12.6
14:15 1021 30.15 851 25.13 11.2 52.2 21 -10.5 13.1
14:20 1021 30.15 850 25.1 11.6 52.8 20 -10.8 12.5
14:25 1021 30.15 850 25.1 12.2 53.9 19 -10.9 12.3
14:30 1021 30.15 850 25.1 12 53.7 20 -10.4 13.4
14:35 1021 30.15 850 25.1 11.2 52.2 21 -10.6 12.9
14:40 1021 30.15 850 25.1 12.2 54 20 -10.2 13.6
14:45 1021 30.15 850 25.1 11.7 53 20 -10.3 13.5
14:50 1021 30.15 850 25.1 12.4 54.3 19 -10.3 13.5
14:55 1021 30.15 850 25.1 12.7 54.8 20 -10 14
15:00 1021 30.15 850 25.1 12 53.6 20 -10 14
15:05 1021 30.15 850 25.1 12.4 54.4 20 -9.9 14.2
15:10 1021 30.15 850 25.1 12.7 54.9 20 -10 14.1
15:15 1021 30.15 850 25.1 12.7 54.8 20 -9.7 14.5
15:20 1020 30.12 850 25.1 12.9 55.2 19 -9.9 14.2
15:25 1020 30.12 850 25.1 12.9 55.3 19 -10.1 13.8
15:30 1020 30.12 850 25.1 13 55.4 20 -9.7 14.6
15:35 1020 30.12 850 25.1 13 55.4 19 -9.9 14.3
15:40 1020 30.12 849 25.07 13 55.4 19 -9.8 14.3
15:45 1020 30.12 849 25.07 13 55.4 20 -9.8 14.4
15:50 1020 30.12 849 25.07 13.2 55.8 20 -9 15.9
15:55 1020 30.12 849 25.07 13.7 56.7 19 -9.5 15
16:00 1020 30.12 849 25.07 13.7 56.7 19 -9.4 15.1
16:05 1020 30.12 849 25.07 13 55.4 20 -9.4 15.2
16:10 1020 30.12 849 25.07 12.5 54.4 21 -9.5 14.8
16:15 1020 30.12 849 25.07 12.4 54.3 20 -10.1 13.9
16:20 1020 30.12 849 25.07 12.4 54.3 20 -9.7 14.5
16:25 1020 30.12 849 25.07 13.2 55.7 19 -10.2 13.7
16:30 1020 30.12 849 25.07 13 55.5 20 -9.3 15.2
16:35 1020 30.12 849 25.07 13 55.4 20 -9.6 14.7
16:40 1019 30.09 849 25.07 13.1 55.6 19 -9.8 14.4
16:45 1019 30.09 849 25.07 13 55.3 21 -8.7 16.3
16:50 1019 30.09 848 25.04 12.8 55 20 -9.7 14.6
16:55 1019 30.09 848 25.04 13.1 55.6 20 -9.5 14.9
17:00 1019 30.09 848 25.04 12.8 55.1 20 -9.8 14.3
17:05 1019 30.09 848 25.04 12.5 54.5 21 -9.3 15.3
17:10 1019 30.09 848 25.04 12.7 54.8 20 -9.7 14.6
17:15 1019 30.09 848 25.04 13 55.4 20 -9.4 15.1
17:20 1019 30.09 848 25.04 12.9 55.2 21 -8.9 16
17:25 1019 30.09 848 25.04 12.6 54.7 20 -9.5 15
17:30 1019 30.09 848 25.04 12.3 54.2 22 -8.5 16.7
17:35 1019 30.09 848 25.04 12.3 54.1 22 -8.5 16.6
17:40 1019 30.09 848 25.04 12.2 54 21 -9.5 14.8
17:45 1019 30.09 848 25.04 12.5 54.5 21 -9.5 15
17:50 1019 30.09 848 25.04 11.7 53.1 22 -9.2 15.5
17:55 1019 30.09 848 25.04 11 51.9 23 -9.4 15.1
18:00 1019 30.09 848 25.04 10.9 51.6 23 -9.3 15.2
18:05 1019 30.09 848 25.04 10.7 51.3 23 -9.3 15.2
18:10 1019 30.09 848 25.04 10.6 51 24 -9.1 15.6
18:15 1019 30.09 848 25.04 10.5 50.9 24 -9.3 15.2
18:20 1019 30.09 848 25.04 10.6 51 24 -9.3 15.3
18:25 1019 30.09 848 25.04 10.6 51 24 -9.3 15.2
18:30 1019 30.09 848 25.04 10.6 51.1 24 -9.2 15.4
18:35 1019 30.09 848 25.04 10.6 51.2 23 -9.4 15.1
18:40 1018 30.06 848 25.04 10.5 50.8 24 -9.3 15.2
18:45 1018 30.06 848 25.04 10.3 50.6 25 -8.9 16
18:50 1018 30.06 848 25.04 10.2 50.3 25 -8.8 16.2
18:55 1018 30.06 848 25.04 10.2 50.3 25 -9 15.9
19:00 1018 30.06 848 25.04 9.5 49.1 34 -5.4 22.2
19:05 1018 30.06 848 25.04 8 46.3 37 -5.8 21.6
19:10 1018 30.06 848 25.04 7.8 46 36 -6.3 20.6
19:15 1018 30.06 848 25.04 7.8 46 35 -6.8 19.8
19:20 1018 30.06 848 25.04 7.7 45.9 34 -7 19.3
19:25 1018 30.06 848 25.04 7.6 45.7 36 -6.5 20.2
19:30 1018 30.06 848 25.04 7.5 45.6 36 -6.5 20.2
19:35 1018 30.06 848 25.04 7.2 44.9 37 -6.4 20.4
19:40 1018 30.06 848 25.04 6.8 44.3 38 -6.4 20.5
19:45 1018 30.06 848 25.04 6.7 44 37 -6.9 19.6
19:50 1018 30.06 848 25.04 6.6 43.9 37 -7.2 19.1
19:55 1018 30.06 847 25.01 6.7 44.1 36 -7.2 19
20:00 1018 30.06 847 25.01 6.8 44.2 36 -7.2 19
20:05 1018 30.06 847 25.01 6.7 44.1 37 -7.1 19.2
20:10 1018 30.06 847 25.01 6.5 43.7 37 -7.3 18.9
20:15 1018 30.06 847 25.01 6.5 43.8 36 -7.5 18.4
20:20 1018 30.06 847 25.01 6.5 43.8 36 -7.5 18.5
20:25 1018 30.06 847 25.01 6.6 43.8 36 -7.4 18.7
20:30 1018 30.06 847 25.01 6.2 43.2 37 -7.4 18.7
20:35 1018 30.06 847 25.01 6.2 43.2 37 -7.3 18.9
20:40 1018 30.06 847 25.01 6.3 43.3 36 -7.5 18.4
20:45 1018 30.06 847 25.01 6.2 43.2 37 -7.3 18.8
20:50 1018 30.06 847 25.01 6 42.8 38 -7.2 19
20:55 1018 30.06 847 25.01 5.8 42.4 39 -7.2 19
21:00 1018 30.06 847 25.01 5.8 42.5 38 -7.3 18.9
21:05 1018 30.06 847 25.01 5.8 42.5 39 -7 19.4
21:10 1018 30.06 847 25.01 5.5 41.9 40 -7.1 19.2
21:15 1018 30.06 847 25.01 5.5 41.8 40 -7 19.3
21:20 1018 30.06 847 25.01 5.3 41.6 41 -7 19.4
21:25 1018 30.06 847 25.01 5.3 41.5 41 -7.1 19.2
21:30 1018 30.06 847 25.01 5.5 41.8 40 -7.1 19.3
21:35 1018 30.06 847 25.01 5.3 41.5 42 -6.6 20.1
21:40 1018 30.06 847 25.01 5 40.9 42 -6.8 19.8
21:45 1018 30.06 847 25.01 5 41 42 -6.9 19.6
21:50 1018 30.06 847 25.01 5.2 41.4 42 -6.6 20.2
21:55 1018 30.06 847 25.01 5.1 41.3 43 -6.6 20.2
22:00 1018 30.06 847 25.01 5.5 41.8 41 -6.8 19.8
22:05 1018 30.06 847 25.01 5.8 42.4 40 -6.9 19.6
22:10 1018 30.06 847 25.01 6 42.9 40 -6.7 19.9
22:15 1018 30.06 847 25.01 6 42.8 41 -6.2 20.8
22:20 1018 30.06 847 25.01 5.7 42.2 42 -6.2 20.8
22:25 1018 30.06 847 25.01 5.4 41.7 43 -6.3 20.6
22:30 1018 30.06 847 25.01 5.4 41.8 42 -6.5 20.3
22:35 1018 30.06 847 25.01 5.8 42.5 41 -6.5 20.2
22:40 1018 30.06 847 25.01 5.8 42.4 42 -6 21.1
22:45 1018 30.06 847 25.01 5.5 41.9 44 -5.8 21.6
22:50 1018 30.06 847 25.01 5.2 41.3 44 -6 21.2
22:55 1018 30.06 847 25.01 4.9 40.8 48 -5.1 22.7
23:00 1018 30.06 847 25.01 4.8 40.7 47 -5.4 22.2
23:05 1018 30.06 847 25.01 4.9 40.8 46 -5.7 21.7
23:10 1018 30.06 847 25.01 5 41 45 -5.8 21.5
23:15 1018 30.06 847 25.01 5.3 41.5 43 -6.4 20.4
23:20 1018 30.06 847 25.01 5.4 41.7 43 -6.2 20.8
23:25 1018 30.06 847 25.01 5.5 41.9 42 -6.4 20.4
23:30 1018 30.06 847 25.01 5.7 42.3 40 -6.8 19.7
23:35 1018 30.06 847 25.01 5.9 42.6 40 -6.5 20.3
23:40 1018 30.06 847 25.01 5.9 42.7 41 -6.3 20.7
23:45 1018 30.06 847 25.01 5.9 42.6 41 -6.3 20.6
23:50 1018 30.06 847 25.01 6.2 43.2 38 -7 19.4
23:55 1018 30.06 847 25.01 6.6 43.9 39 -6.3 20.6
24:00 1018 30.06 847 25.01 6.4 43.5 42 -5.5 22.1